Terminal Aerodrome Forecast
Issued by NWS

Home | Current Version | Previous Version | Text Only | Print | Product List | Glossary On
Versions: 1 2 3 4 5 6 7 8 9 10 11 12 13 14
000
FTUS41 KBTV 031722
TAFSLK
TAF
KSLK 031722Z 0318/0418 25008G15KT P6SM BKN080
     FM040000 VRB03KT P6SM SKC
     FM041400 23015G25KT P6SM SCT060=

USA.gov is the U.S. government's official web portal to all federal, state and local government web resources and services.